Time;durP1;ratioP1;P1;durP2;ratioP2;P2;SDS_P1;SDS_P2;PMS_P1;PMS_P2;Temp;Humidity;BMP_temperature;BMP_pressure;BME280_temperature;BME280_humidity;BME280_pressure;Samples;Min_cycle;Max_cycle;Signal;HPM_P1;HPM_P2
2022/04/17 00:00:14;;;;;;;7.85;4.93;;;5.90;97.60;;;;;;4964532;28;20177;-83
2022/04/17 00:02:40;;;;;;;8.15;5.13;;;5.80;97.40;;;;;;4979118;28;20055;-83
2022/04/17 00:05:07;;;;;;;9.10;4.82;;;5.90;97.50;;;;;;4977779;28;20050;-83
2022/04/17 00:07:33;;;;;;;8.27;4.40;;;5.90;97.40;;;;;;4977765;28;20042;-83
2022/04/17 00:09:59;;;;;;;9.13;5.10;;;5.90;97.50;;;;;;4976842;28;20410;-83
2022/04/17 00:12:26;;;;;;;8.43;5.43;;;5.80;97.60;;;;;;4978729;28;20102;-83
2022/04/17 00:14:54;;;;;;;9.07;4.88;;;5.80;97.80;;;;;;4980165;28;20038;-83
2022/04/17 00:17:20;;;;;;;9.02;5.50;;;5.80;97.60;;;;;;4963029;28;20514;-83
2022/04/17 00:19:45;;;;;;;8.80;5.55;;;5.90;97.20;;;;;;4978984;28;20053;-83
2022/04/17 00:22:13;;;;;;;8.75;5.13;;;5.90;96.40;;;;;;4978579;28;20414;-83
2022/04/17 00:24:39;;;;;;;9.35;5.50;;;6.00;96.20;;;;;;4979572;28;20066;-83
2022/04/17 00:27:05;;;;;;;8.25;5.40;;;5.90;96.10;;;;;;4962332;28;20050;-83
2022/04/17 00:29:30;;;;;;;8.25;5.43;;;5.90;96.20;;;;;;4961732;28;20046;-83
2022/04/17 00:31:59;;;;;;;9.07;5.80;;;6.00;96.20;;;;;;4962072;28;20035;-83
2022/04/17 00:34:26;;;;;;;9.27;6.07;;;5.90;96.20;;;;;;4960907;28;20473;-83
2022/04/17 00:36:52;;;;;;;9.40;5.72;;;5.90;96.10;;;;;;4977307;28;20097;-83
2022/04/17 00:39:18;;;;;;;9.05;5.70;;;6.00;96.00;;;;;;4978247;28;20038;-83
2022/04/17 00:41:46;;;;;;;9.02;5.90;;;6.00;95.80;;;;;;4979400;28;20258;-83
2022/04/17 00:44:14;;;;;;;9.15;5.82;;;6.20;95.60;;;;;;4965079;28;20121;-83
2022/04/17 00:46:41;;;;;;;9.90;6.10;;;6.10;95.40;;;;;;4983462;28;20039;-83
2022/04/17 00:49:07;;;;;;;10.07;6.55;;;6.00;95.40;;;;;;4982617;28;20039;-83
2022/04/17 00:51:35;;;;;;;8.70;5.70;;;6.00;95.50;;;;;;4967230;28;20049;-83
2022/04/17 00:54:02;;;;;;;9.13;5.65;;;6.50;95.80;;;;;;4983704;28;20129;-83
2022/04/17 00:56:30;;;;;;;8.77;5.90;;;6.50;95.60;;;;;;4984000;28;20050;-83
2022/04/17 00:58:56;;;;;;;11.23;6.50;;;6.00;95.40;;;;;;4983060;28;20062;-83
2022/04/17 01:01:22;;;;;;;9.70;6.15;;;6.00;95.40;;;;;;4982297;28;20221;-83
2022/04/17 01:03:49;;;;;;;10.27;6.03;;;6.00;95.60;;;;;;4972269;28;20078;-83
2022/04/17 01:06:15;;;;;;;9.90;6.32;;;5.90;96.00;;;;;;5001432;28;20119;-83
2022/04/17 01:08:42;;;;;;;9.93;5.88;;;5.80;96.30;;;;;;4983168;28;20111;-83
2022/04/17 01:11:11;;;;;;;8.93;5.90;;;5.70;96.60;;;;;;4984334;28;20058;-83
2022/04/17 01:13:42;;;;;;;8.88;6.40;;;5.80;97.20;;;;;;5001892;28;20042;-83
2022/04/17 01:16:08;;;;;;;10.82;6.15;;;5.70;97.40;;;;;;4985525;28;20081;-83
2022/04/17 01:19:00;;;;;;;9.93;6.57;;;5.60;97.70;;;;;;4997953;28;20038;-83
2022/04/17 01:21:27;;;;;;;11.70;6.65;;;5.70;97.50;;;;;;4982037;28;20039;-83
2022/04/17 01:27:01;;;;;;;10.98;6.30;;;5.60;97.90;;;;;;4966841;28;20050;-83
2022/04/17 01:29:35;;;;;;;9.23;6.28;;;5.60;97.80;;;;;;4979733;28;20066;-83
2022/04/17 01:32:03;;;;;;;9.77;6.05;;;5.60;98.00;;;;;;4979445;28;20046;-83
2022/04/17 01:34:30;;;;;;;8.50;5.78;;;5.60;98.10;;;;;;4979828;28;20043;-83
2022/04/17 01:36:56;;;;;;;9.88;6.60;;;6.00;98.10;;;;;;4966120;28;20035;-83
2022/04/17 01:39:23;;;;;;;11.75;6.43;;;5.70;98.20;;;;;;4966883;28;20494;-83
2022/04/17 01:41:50;;;;;;;8.88;6.53;;;5.60;97.90;;;;;;4981197;28;20499;-83
2022/04/17 01:44:16;;;;;;;10.15;6.65;;;5.60;97.90;;;;;;4979704;28;20514;-83
2022/04/17 01:46:43;;;;;;;10.35;6.82;;;5.70;97.90;;;;;;4966293;28;20460;-83
2022/04/17 01:49:10;;;;;;;11.25;6.45;;;5.70;97.70;;;;;;4966274;28;20054;-83
2022/04/17 01:51:39;;;;;;;10.43;6.53;;;5.70;97.60;;;;;;4982497;28;20105;-82
2022/04/17 01:54:12;;;;;;;10.93;6.60;;;6.00;97.60;;;;;;4982033;28;20049;-82
2022/04/17 01:56:39;;;;;;;10.80;6.35;;;5.70;97.50;;;;;;4965485;28;20455;-82
2022/04/17 01:59:06;;;;;;;11.18;6.90;;;5.60;97.70;;;;;;4964858;28;20068;-82
2022/04/17 02:01:33;;;;;;;10.85;7.53;;;6.50;98.10;;;;;;4964592;28;20085;-82
2022/04/17 02:04:01;;;;;;;10.98;6.78;;;5.50;98.40;;;;;;4979059;28;20034;-82
2022/04/17 02:06:27;;;;;;;11.05;7.07;;;5.50;98.40;;;;;;4978619;28;20046;-82
2022/04/17 02:08:52;;;;;;;10.25;6.85;;;5.60;98.20;;;;;;4978751;28;20098;-82
2022/04/17 02:11:19;;;;;;;10.60;6.88;;;6.10;98.30;;;;;;4978968;28;20074;-82
2022/04/17 02:13:45;;;;;;;10.10;6.65;;;5.50;98.00;;;;;;4978627;28;20043;-82
2022/04/17 02:16:11;;;;;;;9.95;7.03;;;5.40;98.50;;;;;;4963861;28;20081;-82
2022/04/17 02:18:37;;;;;;;11.30;7.35;;;5.40;98.70;;;;;;4964246;28;20047;-82
2022/04/17 02:21:02;;;;;;;10.13;7.15;;;5.40;99.00;;;;;;4962545;28;20038;-82
2022/04/17 02:23:28;;;;;;;11.10;7.18;;;6.20;99.30;;;;;;4963038;28;20383;-82
2022/04/17 02:25:54;;;;;;;11.90;7.10;;;5.40;99.00;;;;;;4965325;28;20042;-82
2022/04/17 02:28:20;;;;;;;10.40;7.13;;;5.50;98.90;;;;;;4965549;28;20566;-82
2022/04/17 02:30:45;;;;;;;12.38;7.40;;;5.90;99.00;;;;;;4964563;28;20039;-82
2022/04/17 02:33:11;;;;;;;14.15;7.72;;;5.50;98.70;;;;;;4963820;28;20047;-82
2022/04/17 02:35:37;;;;;;;12.02;7.72;;;5.40;98.80;;;;;;4981255;28;20093;-82
2022/04/17 02:38:04;;;;;;;11.82;7.40;;;5.40;99.10;;;;;;4963586;28;20039;-82
2022/04/17 02:40:30;;;;;;;12.10;8.35;;;6.30;99.40;;;;;;4964074;28;20085;-82
2022/04/17 02:42:58;;;;;;;13.82;8.50;;;5.30;99.30;;;;;;4963238;28;20050;-82
2022/04/17 02:45:24;;;;;;;13.85;8.55;;;5.30;99.60;;;;;;4977136;28;20039;-82
2022/04/17 02:47:51;;;;;;;12.88;8.60;;;5.30;99.80;;;;;;4961276;28;20049;-82
2022/04/17 02:50:18;;;;;;;13.80;8.73;;;5.60;99.90;;;;;;4979236;28;20576;-82
2022/04/17 02:52:45;;;;;;;14.63;9.05;;;5.30;99.90;;;;;;4962034;28;20041;-82
2022/04/17 02:55:11;;;;;;;13.30;8.80;;;5.40;99.70;;;;;;4978476;28;20038;-82
2022/04/17 02:57:37;;;;;;;13.93;9.23;;;5.30;99.70;;;;;;4962548;28;20078;-82
2022/04/17 03:00:08;;;;;;;13.20;8.85;;;5.30;99.80;;;;;;4981056;28;20491;-82
2022/04/17 03:05:37;;;;;;;14.50;9.40;;;5.20;99.90;;;;;;4981203;28;20097;-82
2022/04/17 03:08:16;;;;;;;14.27;9.48;;;5.20;99.90;;;;;;4979859;28;20104;-82
2022/04/17 03:10:43;;;;;;;14.55;9.07;;;5.10;99.90;;;;;;4979297;28;20055;-82
2022/04/17 03:13:09;;;;;;;14.43;9.15;;;5.10;99.90;;;;;;4963732;28;20046;-82
2022/04/17 03:15:37;;;;;;;12.63;8.50;;;5.40;99.90;;;;;;4962863;28;20090;-82
2022/04/17 03:18:04;;;;;;;10.52;7.93;;;5.40;99.90;;;;;;4961961;28;20417;-82
2022/04/17 03:20:30;;;;;;;13.95;9.02;;;4.80;99.90;;;;;;4980225;28;20038;-82
2022/04/17 03:22:57;;;;;;;12.55;8.50;;;5.50;99.90;;;;;;4999422;28;20097;-82
2022/04/17 03:25:23;;;;;;;15.13;8.90;;;4.70;99.90;;;;;;4998583;28;20077;-82
2022/04/17 03:27:49;;;;;;;11.18;7.80;;;4.70;99.90;;;;;;4997908;28;20478;-82
2022/04/17 03:30:15;;;;;;;12.60;8.02;;;4.70;99.90;;;;;;4981257;28;20072;-82
2022/04/17 03:32:43;;;;;;;12.40;8.13;;;4.60;99.90;;;;;;4995423;28;20096;-82
2022/04/17 03:35:09;;;;;;;11.57;8.00;;;4.70;99.90;;;;;;4996258;28;20076;-82
2022/04/17 03:37:35;;;;;;;15.60;9.57;;;4.60;99.90;;;;;;4979171;28;20144;-83
2022/04/17 03:40:01;;;;;;;12.30;8.45;;;4.60;99.90;;;;;;4980778;28;20046;-83
2022/04/17 03:42:26;;;;;;;11.48;8.20;;;4.50;99.90;;;;;;4980258;28;20117;-83
2022/04/17 03:44:53;;;;;;;12.82;8.43;;;4.50;99.90;;;;;;4979354;28;20057;-83
2022/04/17 03:47:19;;;;;;;12.32;8.35;;;4.40;99.90;;;;;;4980776;28;20588;-83
2022/04/17 03:49:45;;;;;;;11.77;8.43;;;4.40;99.90;;;;;;4981694;28;20525;-83
2022/04/17 03:52:10;;;;;;;12.55;8.20;;;4.50;99.90;;;;;;4981076;28;20039;-83
2022/04/17 03:54:36;;;;;;;12.27;8.15;;;4.40;99.90;;;;;;4997131;28;20038;-83
2022/04/17 03:57:02;;;;;;;13.70;8.98;;;4.50;99.90;;;;;;4980379;28;20546;-83
2022/04/17 03:59:27;;;;;;;15.27;9.00;;;4.30;99.90;;;;;;4980877;28;20481;-83
2022/04/17 04:01:53;;;;;;;13.10;9.20;;;4.30;99.90;;;;;;4995751;28;20046;-83
2022/04/17 04:04:19;;;;;;;14.07;9.05;;;4.20;99.90;;;;;;4979184;28;20065;-83
2022/04/17 04:06:44;;;;;;;13.95;9.55;;;4.20;99.90;;;;;;4995035;28;20042;-83
2022/04/17 04:09:10;;;;;;;15.35;10.30;;;4.10;99.90;;;;;;4979164;28;20049;-83
2022/04/17 04:11:36;;;;;;;16.73;10.15;;;3.90;99.90;;;;;;4996698;28;20107;-83
2022/04/17 04:14:05;;;;;;;12.82;8.00;;;3.80;99.90;;;;;;4979520;28;20181;-83
2022/04/17 04:16:31;;;;;;;13.00;8.50;;;4.10;99.90;;;;;;4996646;28;20054;-83
2022/04/17 04:18:57;;;;;;;13.20;9.13;;;3.80;99.90;;;;;;4979557;28;20066;-83
2022/04/17 04:21:22;;;;;;;12.90;9.35;;;4.40;99.90;;;;;;4998575;28;20046;-83
2022/04/17 04:23:48;;;;;;;12.23;8.73;;;3.70;99.90;;;;;;5000456;28;20504;-83
2022/04/17 04:26:14;;;;;;;13.75;9.18;;;4.30;99.90;;;;;;4984800;28;20042;-83
2022/04/17 04:28:40;;;;;;;13.48;9.23;;;3.90;99.90;;;;;;4999776;28;20039;-83
2022/04/17 04:31:13;;;;;;;16.00;10.65;;;3.70;99.90;;;;;;4983547;28;20038;-83
2022/04/17 04:33:42;;;;;;;12.75;9.93;;;3.70;99.90;;;;;;4999181;28;20552;-83
2022/04/17 04:36:11;;;;;;;15.15;9.82;;;4.10;99.90;;;;;;5000853;28;20045;-83
2022/04/17 04:38:37;;;;;;;12.10;8.38;;;3.70;99.90;;;;;;4999764;28;20043;-83
2022/04/17 04:41:04;;;;;;;15.25;10.48;;;3.90;99.90;;;;;;4999425;28;20042;-83
2022/04/17 04:43:30;;;;;;;12.52;8.55;;;4.20;99.90;;;;;;4999774;28;20046;-83
2022/04/17 04:46:09;;;;;;;15.80;10.60;;;3.90;99.90;;;;;;4983047;28;20038;-83
2022/04/17 04:51:26;;;;;;;13.75;8.75;;;3.50;99.90;;;;;;4980144;28;20073;-83
2022/04/17 04:53:53;;;;;;;13.43;8.23;;;3.70;99.90;;;;;;4979351;28;20058;-83
2022/04/17 04:56:19;;;;;;;12.02;8.93;;;3.60;99.90;;;;;;4980413;28;20446;-83
2022/04/17 04:58:46;;;;;;;15.13;9.52;;;3.60;99.90;;;;;;4964218;28;20102;-83
2022/04/17 05:01:12;;;;;;;13.65;9.00;;;3.60;99.90;;;;;;4980019;28;20046;-83
2022/04/17 05:03:38;;;;;;;14.05;9.20;;;3.70;99.90;;;;;;4961902;28;20058;-83
2022/04/17 05:06:04;;;;;;;14.15;9.40;;;3.60;99.90;;;;;;4980445;28;20498;-83
2022/04/17 05:08:30;;;;;;;12.32;7.97;;;3.50;99.90;;;;;;4962984;28;20113;-83
2022/04/17 05:10:56;;;;;;;12.93;7.97;;;3.50;99.90;;;;;;4962938;28;20134;-83
2022/04/17 05:13:22;;;;;;;12.73;9.75;;;3.50;99.90;;;;;;4979380;28;20239;-83
2022/04/17 05:15:48;;;;;;;13.25;9.70;;;3.60;99.90;;;;;;4962730;28;20464;-83
2022/04/17 05:18:15;;;;;;;11.52;8.00;;;3.50;99.90;;;;;;4978106;28;20042;-83
2022/04/17 05:20:40;;;;;;;12.43;9.38;;;3.50;99.90;;;;;;4963684;28;20038;-83
2022/04/17 05:23:26;;;;;;;13.68;9.40;;;3.50;99.90;;;;;;4963966;28;20082;-83
2022/04/17 05:25:57;;;;;;;14.35;9.68;;;3.80;99.90;;;;;;4980431;28;20133;-83
2022/04/17 05:28:24;;;;;;;14.32;10.18;;;4.40;99.90;;;;;;4964848;28;20050;-83
2022/04/17 05:30:50;;;;;;;13.15;9.80;;;4.20;99.90;;;;;;4979860;28;20506;-83
2022/04/17 05:33:20;;;;;;;15.00;9.68;;;5.30;99.90;;;;;;4962117;28;20039;-83
2022/04/17 05:35:46;;;;;;;14.27;10.02;;;4.80;99.90;;;;;;4963781;28;20046;-83
2022/04/17 05:38:11;;;;;;;14.90;10.43;;;5.10;99.90;;;;;;4978351;28;20039;-83
2022/04/17 05:40:47;;;;;;;13.32;9.82;;;5.20;99.90;;;;;;4963207;28;20051;-83
2022/04/17 05:43:13;;;;;;;14.48;9.98;;;5.40;99.90;;;;;;4978324;28;20494;-83
2022/04/17 05:45:39;;;;;;;14.35;9.98;;;5.40;99.90;;;;;;4979364;28;20053;-83
2022/04/17 05:48:07;;;;;;;12.75;9.63;;;5.70;99.90;;;;;;4962221;28;20395;-83
2022/04/17 05:50:33;;;;;;;13.50;9.82;;;5.50;99.90;;;;;;4977934;28;20055;-83
2022/04/17 05:53:00;;;;;;;13.20;9.38;;;5.50;99.90;;;;;;4978233;28;20045;-83
2022/04/17 05:55:27;;;;;;;14.27;9.60;;;5.60;99.90;;;;;;4962351;28;20035;-83
2022/04/17 05:57:52;;;;;;;14.00;9.82;;;5.70;99.90;;;;;;4963856;28;20042;-83
2022/04/17 06:00:18;;;;;;;13.95;9.85;;;6.40;99.90;;;;;;4963512;28;20050;-83
2022/04/17 06:02:46;;;;;;;14.05;9.55;;;6.30;99.90;;;;;;4963223;28;20082;-83
2022/04/17 06:05:13;;;;;;;14.90;10.27;;;6.80;99.90;;;;;;4979513;28;20042;-83
2022/04/17 06:07:39;;;;;;;13.98;10.27;;;7.20;99.90;;;;;;4980476;28;20054;-83
2022/04/17 06:10:12;;;;;;;13.38;9.73;;;8.00;99.90;;;;;;4972171;28;20039;-83
2022/04/17 06:12:39;;;;;;;13.32;9.52;;;8.10;96.90;;;;;;4993183;28;20065;-83
2022/04/17 06:15:07;;;;;;;13.48;9.68;;;8.40;96.40;;;;;;4998752;28;20034;-83
2022/04/17 06:17:40;;;;;;;14.05;9.80;;;8.50;95.90;;;;;;4999207;28;20034;-83
2022/04/17 06:20:09;;;;;;;14.05;10.15;;;8.80;96.50;;;;;;4982576;28;20437;-83
2022/04/17 06:22:35;;;;;;;16.65;10.25;;;8.90;95.80;;;;;;4995190;28;20427;-82
2022/04/17 06:25:04;;;;;;;15.15;10.43;;;9.30;95.50;;;;;;4974596;28;20034;-82
2022/04/17 06:27:44;;;;;;;14.35;9.63;;;10.10;95.70;;;;;;4993188;28;20141;-82
2022/04/17 06:30:15;;;;;;;13.77;9.52;;;10.60;93.20;;;;;;4979738;28;20042;-82
2022/04/17 06:32:42;;;;;;;15.25;10.40;;;11.00;86.60;;;;;;4981330;28;20042;-83
2022/04/17 06:35:09;;;;;;;13.95;10.30;;;11.50;87.80;;;;;;4976356;28;20034;-83
2022/04/17 06:37:50;;;;;;;13.52;9.95;;;12.10;86.20;;;;;;4963719;28;20534;-83
2022/04/17 06:40:17;;;;;;;13.63;10.05;;;12.70;78.30;;;;;;4989034;28;20074;-83
2022/04/17 06:42:45;;;;;;;12.50;9.38;;;13.10;71.50;;;;;;4950914;28;20501;-83
2022/04/17 06:45:10;;;;;;;12.75;9.20;;;13.10;68.80;;;;;;4964182;28;20092;-83
2022/04/17 06:47:36;;;;;;;12.80;9.65;;;13.20;67.80;;;;;;4962173;28;20047;-83
2022/04/17 06:50:03;;;;;;;14.50;9.90;;;13.10;66.90;;;;;;4964324;28;20039;-83
2022/04/17 06:52:28;;;;;;;12.43;9.80;;;13.10;66.80;;;;;;4963683;28;20046;-83
2022/04/17 06:54:54;;;;;;;13.43;9.57;;;13.10;66.90;;;;;;4980132;28;20041;-83
2022/04/17 06:57:26;;;;;;;12.40;9.25;;;13.50;67.30;;;;;;4963031;28;20129;-83
2022/04/17 06:59:51;;;;;;;13.93;9.70;;;13.70;62.80;;;;;;4962296;28;20047;-83
2022/04/17 07:02:17;;;;;;;13.43;9.23;;;13.50;60.10;;;;;;4997700;28;20045;-83
2022/04/17 07:04:43;;;;;;;12.35;9.13;;;13.30;60.40;;;;;;5001183;28;20042;-83
2022/04/17 07:07:08;;;;;;;12.88;9.40;;;13.50;61.60;;;;;;5017695;28;20038;-83
2022/04/17 07:09:34;;;;;;;12.60;8.93;;;13.40;62.30;;;;;;5001685;28;20037;-83
2022/04/17 07:12:00;;;;;;;14.15;9.68;;;13.30;60.20;;;;;;5001642;28;20051;-83
2022/04/17 07:14:26;;;;;;;12.43;9.23;;;13.20;61.30;;;;;;4982274;28;20167;-83
2022/04/17 07:16:51;;;;;;;13.18;9.52;;;13.20;61.60;;;;;;4966235;28;20416;-83
2022/04/17 07:19:17;;;;;;;13.85;9.63;;;12.90;62.70;;;;;;4964892;28;20042;-83
2022/04/17 07:21:42;;;;;;;13.25;9.38;;;12.90;64.50;;;;;;4982218;28;20042;-83
2022/04/17 07:24:08;;;;;;;12.77;9.35;;;13.30;63.80;;;;;;4997979;28;20046;-83
2022/04/17 07:26:34;;;;;;;12.27;9.00;;;13.30;60.70;;;;;;4967631;28;20046;-82
2022/04/17 07:28:59;;;;;;;13.60;9.52;;;13.30;61.90;;;;;;4971089;28;20042;-82
2022/04/17 07:31:25;;;;;;;12.90;9.30;;;13.50;60.50;;;;;;5017721;28;20042;-82
2022/04/17 07:33:51;;;;;;;13.13;8.70;;;13.60;59.70;;;;;;5001862;28;20470;-82
2022/04/17 07:36:16;;;;;;;11.70;8.70;;;13.60;60.60;;;;;;4980674;28;20153;-82
2022/04/17 07:38:42;;;;;;;12.73;8.82;;;13.80;58.80;;;;;;4963452;28;20042;-82
2022/04/17 07:41:08;;;;;;;11.90;8.88;;;14.00;57.40;;;;;;4960952;28;20050;-82
2022/04/17 07:43:34;;;;;;;11.55;8.63;;;14.30;58.60;;;;;;4979751;28;20037;-82
2022/04/17 07:46:00;;;;;;;11.82;8.32;;;14.60;57.50;;;;;;4976195;28;20055;-82
2022/04/17 07:48:25;;;;;;;12.45;8.82;;;14.80;55.30;;;;;;4950850;28;20588;-82
2022/04/17 07:50:54;;;;;;;10.88;8.10;;;15.40;55.90;;;;;;4962550;28;20050;-82
2022/04/17 07:53:20;;;;;;;11.38;7.75;;;15.30;53.50;;;;;;4965309;28;20041;-82
2022/04/17 07:55:45;;;;;;;11.68;7.75;;;15.10;51.10;;;;;;4986523;28;20493;-82
2022/04/17 07:58:15;;;;;;;10.00;7.35;;;14.90;55.30;;;;;;4981789;28;20101;-82
2022/04/17 08:00:57;;;;;;;10.88;7.00;;;14.70;52.00;;;;;;4979827;28;20524;-82
2022/04/17 08:03:34;;;;;;;11.20;7.05;;;14.50;53.30;;;;;;4981489;28;20409;-82
2022/04/17 08:06:05;;;;;;;9.98;7.10;;;14.50;52.40;;;;;;4979707;28;20514;-82
2022/04/17 08:08:35;;;;;;;10.50;7.28;;;14.60;53.30;;;;;;4991820;28;20057;-82
2022/04/17 08:11:00;;;;;;;11.15;6.75;;;14.80;51.80;;;;;;4962880;28;20054;-82
2022/04/17 08:13:26;;;;;;;11.88;6.55;;;14.80;51.90;;;;;;4980683;28;20057;-82
2022/04/17 08:15:52;;;;;;;8.95;6.40;;;14.80;49.90;;;;;;4975048;28;20038;-82
2022/04/17 08:18:18;;;;;;;8.88;5.90;;;14.70;51.40;;;;;;4982860;28;20039;-82
2022/04/17 08:20:44;;;;;;;10.60;6.95;;;14.60;50.80;;;;;;4999786;28;20042;-82
2022/04/17 08:23:10;;;;;;;10.25;6.57;;;15.00;53.60;;;;;;4982560;28;20400;-82
2022/04/17 08:25:37;;;;;;;9.50;6.38;;;15.20;51.70;;;;;;4983656;28;20038;-82
2022/04/17 08:28:03;;;;;;;9.60;6.13;;;15.20;50.60;;;;;;4983598;28;20503;-82
2022/04/17 08:30:30;;;;;;;9.38;5.97;;;15.40;50.90;;;;;;4999121;28;20038;-82
2022/04/17 08:32:57;;;;;;;8.82;6.03;;;15.40;48.30;;;;;;4983700;28;20045;-82
2022/04/17 08:35:23;;;;;;;9.50;5.72;;;15.40;50.40;;;;;;4984801;28;20042;-82
2022/04/17 08:37:49;;;;;;;10.07;5.53;;;15.40;49.90;;;;;;4984146;28;20601;-82
2022/04/17 08:40:15;;;;;;;10.30;5.53;;;15.40;48.20;;;;;;4984384;28;20042;-82
2022/04/17 08:42:41;;;;;;;8.30;5.28;;;15.30;47.70;;;;;;4984510;28;20042;-82
2022/04/17 08:45:11;;;;;;;8.60;5.20;;;15.30;47.70;;;;;;4984519;28;20130;-82
2022/04/17 08:47:39;;;;;;;10.00;6.03;;;15.30;48.30;;;;;;4984073;28;20188;-82
2022/04/17 08:50:10;;;;;;;9.45;6.13;;;15.30;48.70;;;;;;4998204;28;20070;-82
2022/04/17 08:52:38;;;;;;;9.07;5.40;;;15.50;50.40;;;;;;4998511;28;20047;-82
2022/04/17 08:55:05;;;;;;;8.30;5.57;;;15.80;49.10;;;;;;4986735;28;20552;-82
2022/04/17 08:57:31;;;;;;;8.55;5.20;;;15.90;48.10;;;;;;4978786;28;20039;-83
2022/04/17 08:59:56;;;;;;;9.30;5.35;;;15.90;45.30;;;;;;4978367;28;20053;-82
2022/04/17 09:02:22;;;;;;;8.00;5.32;;;15.80;47.30;;;;;;4961547;28;20085;-82
2022/04/17 09:04:48;;;;;;;8.73;5.35;;;15.70;45.70;;;;;;4966158;28;20042;-82
2022/04/17 09:07:13;;;;;;;9.77;5.88;;;15.60;46.80;;;;;;5000058;28;20084;-82
2022/04/17 09:09:53;;;;;;;9.77;5.47;;;15.70;48.80;;;;;;4999839;28;20039;-82
2022/04/17 09:12:21;;;;;;;8.40;5.53;;;16.00;49.00;;;;;;5000185;28;20062;-82
2022/04/17 09:14:47;;;;;;;10.57;5.60;;;16.10;47.90;;;;;;4984449;28;20479;-82
2022/04/17 09:17:12;;;;;;;8.57;5.72;;;16.20;48.90;;;;;;4991963;28;20038;-82
2022/04/17 09:19:38;;;;;;;8.80;5.78;;;16.40;48.80;;;;;;4998364;28;20105;-82
2022/04/17 09:22:09;;;;;;;9.57;5.90;;;16.50;47.30;;;;;;4985745;28;20473;-83
2022/04/17 09:24:36;;;;;;;8.03;5.37;;;16.70;46.50;;;;;;5003521;28;20038;-82
2022/04/17 09:27:04;;;;;;;7.13;4.70;;;16.70;46.10;;;;;;5003310;28;20498;-82
2022/04/17 09:29:36;;;;;;;9.02;5.43;;;16.60;43.90;;;;;;4984791;28;20039;-82
2022/04/17 09:32:15;;;;;;;7.63;5.57;;;16.70;45.20;;;;;;5002918;28;20049;-82
2022/04/17 09:34:55;;;;;;;8.65;5.40;;;17.00;45.40;;;;;;5019584;28;20445;-82
2022/04/17 09:37:27;;;;;;;7.82;5.20;;;17.00;46.30;;;;;;4998515;28;20163;-82
2022/04/17 09:39:53;;;;;;;8.05;5.20;;;17.00;44.00;;;;;;4982176;28;20050;-82
2022/04/17 09:42:23;;;;;;;7.53;4.30;;;16.90;44.00;;;;;;4976997;28;20054;-82
2022/04/17 09:44:51;;;;;;;8.52;4.97;;;17.00;42.60;;;;;;4985335;28;20070;-82
2022/04/17 09:47:22;;;;;;;7.25;4.53;;;17.00;45.00;;;;;;5000390;28;20398;-82
2022/04/17 09:49:59;;;;;;;7.60;4.45;;;17.10;44.80;;;;;;5001625;28;20109;-82
2022/04/17 09:52:32;;;;;;;8.13;5.00;;;17.40;43.40;;;;;;5000851;28;20125;-82
2022/04/17 09:54:59;;;;;;;8.52;4.90;;;17.50;40.50;;;;;;5002570;28;20046;-82
2022/04/17 09:57:33;;;;;;;7.22;5.10;;;17.50;44.10;;;;;;4985852;28;20062;-82
2022/04/17 10:00:11;;;;;;;8.55;5.03;;;17.50;41.00;;;;;;5002433;28;20077;-82
2022/04/17 10:02:42;;;;;;;7.63;4.72;;;17.40;43.60;;;;;;4985073;28;20504;-82
2022/04/17 10:05:13;;;;;;;7.85;4.30;;;17.50;40.70;;;;;;5001900;28;20375;-82
2022/04/17 10:07:49;;;;;;;7.60;5.20;;;17.50;39.70;;;;;;5001645;28;20050;-82
2022/04/17 10:10:16;;;;;;;7.80;4.82;;;17.30;40.60;;;;;;4986255;28;20474;-82
2022/04/17 10:12:46;;;;;;;8.32;4.93;;;17.20;41.50;;;;;;4985010;28;20066;-82
2022/04/17 10:15:12;;;;;;;7.20;4.53;;;17.30;41.50;;;;;;4980403;28;20030;-82
2022/04/17 10:17:39;;;;;;;6.70;4.13;;;17.40;40.80;;;;;;4965212;28;20080;-82
2022/04/17 10:20:06;;;;;;;8.30;4.20;;;17.30;42.10;;;;;;4979775;28;20035;-82
2022/04/17 10:22:38;;;;;;;7.85;4.60;;;17.30;39.70;;;;;;4979077;28;20039;-82
2022/04/17 10:25:06;;;;;;;8.80;4.03;;;17.20;42.00;;;;;;4950362;28;20034;-82
2022/04/17 10:27:54;;;;;;;6.47;3.10;;;17.20;39.20;;;;;;4964086;28;20081;-82
2022/04/17 10:30:47;;;;;;;5.65;3.17;;;17.30;36.40;;;;;;4992947;28;20042;-82
2022/04/17 10:33:32;;;;;;;6.10;3.33;;;17.30;36.90;;;;;;4979373;28;20418;-82
2022/04/17 10:36:09;;;;;;;6.55;3.22;;;17.30;40.10;;;;;;4980813;28;20039;-82
2022/04/17 10:39:18;;;;;;;6.60;3.30;;;17.40;39.20;;;;;;4980623;28;20034;-82
2022/04/17 10:41:44;;;;;;;7.88;3.72;;;17.50;39.00;;;;;;4987718;28;20047;-83
2022/04/17 10:44:11;;;;;;;6.45;3.75;;;17.80;40.50;;;;;;4978475;28;20597;-82
2022/04/17 10:46:51;;;;;;;6.38;4.18;;;17.90;39.10;;;;;;4986029;28;20410;-82
2022/04/17 10:49:29;;;;;;;6.82;4.00;;;18.00;38.80;;;;;;5001195;28;20056;-82
2022/04/17 10:51:56;;;;;;;7.88;4.20;;;18.00;39.20;;;;;;4984465;28;20060;-82
2022/04/17 10:54:45;;;;;;;7.93;4.30;;;18.10;39.10;;;;;;5001219;28;20555;-82
2022/04/17 10:57:11;;;;;;;7.68;4.50;;;18.00;37.10;;;;;;4999515;28;20093;-82
2022/04/17 10:59:37;;;;;;;8.20;4.80;;;17.80;37.50;;;;;;4981495;28;20043;-82
2022/04/17 11:02:08;;;;;;;8.30;4.40;;;17.90;35.80;;;;;;4966451;28;20494;-82
2022/04/17 11:04:41;;;;;;;7.28;4.28;;;17.90;39.20;;;;;;4980546;28;20046;-82
2022/04/17 11:07:08;;;;;;;7.05;4.40;;;18.00;39.30;;;;;;4983109;28;20038;-82
2022/04/17 11:09:41;;;;;;;7.45;4.47;;;17.80;38.60;;;;;;4984297;28;20037;-82
2022/04/17 11:12:10;;;;;;;7.82;4.75;;;17.80;39.10;;;;;;4984388;28;20518;-82
2022/04/17 11:14:39;;;;;;;8.38;4.75;;;17.90;37.90;;;;;;4983961;28;20054;-82
2022/04/17 11:17:09;;;;;;;7.35;4.60;;;18.00;38.20;;;;;;4999878;28;20043;-82
2022/04/17 11:19:47;;;;;;;7.35;4.57;;;18.10;36.60;;;;;;4983282;28;20046;-82
2022/04/17 11:22:16;;;;;;;6.90;4.55;;;18.00;37.30;;;;;;4983719;28;20046;-82
2022/04/17 11:24:57;;;;;;;7.45;4.80;;;18.00;37.40;;;;;;4998636;28;20045;-82
2022/04/17 11:27:49;;;;;;;7.53;4.65;;;18.00;36.80;;;;;;4983031;28;20124;-82
2022/04/17 11:30:15;;;;;;;7.55;4.80;;;18.00;37.40;;;;;;4972370;28;20046;-82
2022/04/17 11:32:40;;;;;;;8.65;5.20;;;18.20;36.90;;;;;;4998024;28;20149;-82
2022/04/17 11:35:11;;;;;;;7.72;5.10;;;18.10;37.30;;;;;;4999606;28;20038;-82
2022/04/17 11:37:38;;;;;;;7.35;4.53;;;18.10;36.40;;;;;;4998516;28;20042;-82
2022/04/17 11:40:12;;;;;;;7.10;4.70;;;18.20;35.30;;;;;;5014606;28;20042;-82
2022/04/17 11:42:42;;;;;;;8.25;5.28;;;18.20;38.80;;;;;;4998433;28;20038;-82
2022/04/17 11:45:09;;;;;;;8.18;4.60;;;18.30;36.80;;;;;;4999980;28;20038;-82
2022/04/17 11:47:46;;;;;;;7.60;4.80;;;18.30;40.90;;;;;;4989347;28;20042;-82
2022/04/17 11:50:23;;;;;;;7.45;5.05;;;18.30;35.30;;;;;;4995745;28;20468;-82
2022/04/17 11:52:50;;;;;;;7.25;4.40;;;18.30;35.80;;;;;;4991554;28;20039;-82
2022/04/17 11:55:16;;;;;;;7.00;4.22;;;18.40;35.00;;;;;;4992732;28;20448;-82
2022/04/17 11:57:42;;;;;;;7.07;4.55;;;18.20;34.70;;;;;;4990598;28;20047;-82
2022/04/17 12:00:08;;;;;;;8.00;4.57;;;18.10;39.10;;;;;;4965640;28;20394;-82
2022/04/17 12:02:36;;;;;;;7.65;4.85;;;18.20;37.60;;;;;;4976178;28;20076;-82
2022/04/17 12:05:08;;;;;;;7.07;4.53;;;18.10;35.60;;;;;;4978767;28;20050;-82
2022/04/17 12:07:34;;;;;;;7.07;4.20;;;18.00;36.50;;;;;;4982317;28;20046;-82
2022/04/17 12:10:13;;;;;;;7.72;4.68;;;18.00;34.90;;;;;;4993675;28;20043;-82
2022/04/17 12:12:43;;;;;;;7.63;4.70;;;18.00;37.80;;;;;;4978302;28;20116;-82
2022/04/17 12:15:10;;;;;;;9.27;4.80;;;18.00;37.30;;;;;;4986096;28;20043;-83
2022/04/17 12:17:36;;;;;;;7.40;4.47;;;17.90;35.50;;;;;;4985146;28;20052;-82
2022/04/17 12:20:12;;;;;;;7.68;4.60;;;18.10;35.50;;;;;;4986039;28;20074;-82
2022/04/17 12:22:38;;;;;;;8.95;4.47;;;18.10;35.80;;;;;;4984995;28;20038;-82
2022/04/17 12:25:15;;;;;;;7.80;4.97;;;18.20;35.50;;;;;;5000297;28;20043;-82
2022/04/17 12:27:41;;;;;;;8.10;5.10;;;18.00;37.90;;;;;;4964487;28;20047;-82
2022/04/17 12:30:07;;;;;;;7.30;4.80;;;18.10;35.60;;;;;;4992567;28;20045;-81
2022/04/17 12:32:43;;;;;;;8.13;4.97;;;18.00;35.00;;;;;;4983178;28;20432;-81
2022/04/17 12:35:13;;;;;;;7.90;5.10;;;18.00;36.20;;;;;;4989319;28;20441;-81
2022/04/17 12:37:39;;;;;;;8.90;5.55;;;17.90;36.40;;;;;;4989989;28;20039;-81
2022/04/17 12:40:19;;;;;;;7.57;5.20;;;17.90;35.90;;;;;;4983869;28;20050;-81
2022/04/17 12:42:44;;;;;;;7.97;5.22;;;18.00;40.80;;;;;;4987710;28;20053;-81
2022/04/17 12:45:25;;;;;;;9.82;5.80;;;18.10;39.20;;;;;;4970649;28;20038;-81
2022/04/17 12:48:07;;;;;;;10.77;5.65;;;18.10;35.50;;;;;;5002714;28;20038;-81
2022/04/17 12:50:33;;;;;;;9.32;5.40;;;18.10;40.80;;;;;;5008838;28;20038;-81
2022/04/17 12:53:01;;;;;;;8.18;5.28;;;18.10;37.30;;;;;;5005616;28;20042;-81
2022/04/17 12:55:32;;;;;;;8.02;4.80;;;17.80;35.50;;;;;;4988500;28;20031;-81
2022/04/17 12:57:58;;;;;;;7.35;5.00;;;18.00;35.10;;;;;;4988001;28;20478;-81
2022/04/17 13:00:26;;;;;;;9.65;4.90;;;18.00;35.20;;;;;;4999982;28;20046;-81